PWSweather.com
Personal Weather Stations
Station Observations
IRIVIRED2
île Maurice, Petit RaffrayMU

île MauricePetit RaffrayMU

Lat: -20.02533, Lon: 57.61883

Elevation: 183

Station Type: Davis Vantage Pro2 plus

http://www.meteomauritius.altervista.org

Latest ConditionsUpdated 4:40:01 PM GMT+04:04 Saturday, Jul 20, 2019
Currently Today's Max Today's Min Today's Average
Temperature 73.1°F22.8°C 76.6°F24.8°C 66.8°F19.3°C 72.6°F22.6°C
Dew Point 66.9°F19.4°C 67.7°F19.8°C 61.8°F16.6°C 65.4°F18.6°C
Winds 5.8 mph E9.3 kmh E 12.7 mph -20.4 kmh - - 5.7 mph 9.2 kmh
Wind Gusts 6.9 mph11.1 kmh 19.6 mph31.5 kmh - -
Humidity 81% 87% 70% 78%
Pressure 30.09 in1019.0 mb 30.21 in1023.0 mb 30.08 in1018.6 mb -
Precipitation - 0.02 in0.5 mm - -
Hour Temp Dew Point Humidity Winds Wind Gusts Pressure Precip Precip Rate Daily Precip Total
04:40 PM 73.1°F22.8°C 66.9°F19.4°C 81% 5.8 mph E9.3 kmh E 6.9 mph11.1 kmh 30.09 in1019.0 mb - 0.00 in0.0 mm 0.02 in0.5 mm
04:30 PM 73.9°F23.3°C 67.7°F19.8°C 81% 9.2 mph E14.8 kmh E 11.5 mph18.5 kmh 30.08 in1018.6 mb - 0.00 in0.0 mm 0.02 in0.5 mm
04:20 PM 73.9°F23.3°C 67.3°F19.6°C 80% 6.9 mph E11.1 kmh E 16.1 mph25.9 kmh 30.08 in1018.6 mb - 0.00 in0.0 mm 0.02 in0.5 mm
04:10 PM 74.9°F23.8°C 67.6°F19.8°C 78% 10.4 mph E16.7 kmh E 17.3 mph27.8 kmh 30.08 in1018.6 mb - 0.00 in0.0 mm 0.02 in0.5 mm
04:00 PM 75.3°F24.1°C 67.6°F19.8°C 77% 8.1 mph E13.0 kmh E 16.1 mph25.9 kmh 30.08 in1018.6 mb - 0.00 in0.0 mm 0.02 in0.5 mm
03:50 PM 75.4°F24.1°C 66.1°F18.9°C 73% 4.6 mph E7.4 kmh E 10.4 mph16.7 kmh 30.08 in1018.6 mb - 0.00 in0.0 mm 0.02 in0.5 mm
03:40 PM 75.5°F24.2°C 66.2°F19.0°C 73% 5.8 mph ESE9.3 kmh ESE 13.8 mph22.2 kmh 30.08 in1018.6 mb - 0.00 in0.0 mm 0.02 in0.5 mm
03:30 PM 75.6°F24.2°C 65.9°F18.8°C 72% 8.1 mph E13.0 kmh E 12.7 mph20.4 kmh 30.08 in1018.6 mb - 0.00 in0.0 mm 0.02 in0.5 mm
03:20 PM 75.2°F24.0°C 65.9°F18.8°C 73% 10.4 mph E16.7 kmh E 17.3 mph27.8 kmh 30.08 in1018.6 mb - 0.00 in0.0 mm 0.02 in0.5 mm
03:10 PM 75.6°F24.2°C 66.3°F19.1°C 73% 8.1 mph ESE13.0 kmh ESE 17.3 mph27.8 kmh 30.08 in1018.6 mb - 0.00 in0.0 mm 0.02 in0.5 mm
03:00 PM 76.1°F24.5°C 66.0°F18.9°C 71% 8.1 mph ESE13.0 kmh ESE 13.8 mph22.2 kmh 30.08 in1018.6 mb - 0.00 in0.0 mm 0.02 in0.5 mm
02:50 PM 75.8°F24.3°C 66.1°F18.9°C 72% 9.2 mph ESE14.8 kmh ESE 18.4 mph29.6 kmh 30.08 in1018.6 mb - 0.00 in0.0 mm 0.02 in0.5 mm
02:40 PM 75.5°F24.2°C 65.8°F18.8°C 72% 6.9 mph E11.1 kmh E 12.7 mph20.4 kmh 30.08 in1018.6 mb - 0.00 in0.0 mm 0.02 in0.5 mm
02:30 PM 76.1°F24.5°C 66.0°F18.9°C 71% 9.2 mph E14.8 kmh E 16.1 mph25.9 kmh 30.09 in1019.0 mb - 0.00 in0.0 mm 0.02 in0.5 mm
02:20 PM 76.4°F24.7°C 66.3°F19.1°C 71% 10.4 mph ESE16.7 kmh ESE 17.3 mph27.8 kmh 30.09 in1019.0 mb - 0.00 in0.0 mm 0.02 in0.5 mm
02:10 PM 75.6°F24.2°C 66.0°F18.9°C 72% 9.2 mph ESE14.8 kmh ESE 16.1 mph25.9 kmh 30.09 in1019.0 mb - 0.00 in0.0 mm 0.02 in0.5 mm
02:00 PM 76.0°F24.4°C 65.9°F18.8°C 71% 10.4 mph E16.7 kmh E 18.4 mph29.6 kmh 30.09 in1019.0 mb - 0.00 in0.0 mm 0.02 in0.5 mm
01:50 PM 76.6°F24.8°C 66.9°F19.4°C 72% 6.9 mph ESE11.1 kmh ESE 19.6 mph31.5 kmh 30.09 in1019.0 mb - 0.00 in0.0 mm 0.02 in0.5 mm
01:40 PM 76.2°F24.6°C 66.5°F19.2°C 72% 8.1 mph E13.0 kmh E 15.0 mph24.1 kmh 30.10 in1019.3 mb - 0.00 in0.0 mm 0.02 in0.5 mm
01:30 PM 75.7°F24.3°C 65.2°F18.4°C 70% 10.4 mph E16.7 kmh E 16.1 mph25.9 kmh 30.10 in1019.3 mb - 0.00 in0.0 mm 0.02 in0.5 mm
01:20 PM 75.1°F23.9°C 65.8°F18.8°C 73% 5.8 mph E9.3 kmh E 18.4 mph29.6 kmh 30.10 in1019.3 mb - 0.00 in0.0 mm 0.02 in0.5 mm
01:10 PM 76.2°F24.6°C 66.5°F19.2°C 72% 11.5 mph E18.5 kmh E 19.6 mph31.5 kmh 30.11 in1019.6 mb - 0.00 in0.0 mm 0.02 in0.5 mm
01:00 PM 76.0°F24.4°C 66.3°F19.1°C 72% 10.4 mph E16.7 kmh E 16.1 mph25.9 kmh 30.11 in1019.6 mb - 0.00 in0.0 mm 0.02 in0.5 mm
12:50 PM 75.7°F24.3°C 65.6°F18.7°C 71% 12.7 mph SE20.4 kmh SE 18.4 mph29.6 kmh 30.11 in1019.6 mb - 0.00 in0.0 mm 0.02 in0.5 mm
12:40 PM 76.2°F24.6°C 66.5°F19.2°C 72% 10.4 mph ESE16.7 kmh ESE 15.0 mph24.1 kmh 30.12 in1020.0 mb - 0.00 in0.0 mm 0.02 in0.5 mm
12:30 PM 76.2°F24.6°C 66.9°F19.4°C 73% 5.8 mph E9.3 kmh E 13.8 mph22.2 kmh 30.13 in1020.3 mb - 0.00 in0.0 mm 0.02 in0.5 mm
12:20 PM 76.0°F24.4°C 66.7°F19.3°C 73% 6.9 mph ENE11.1 kmh ENE 16.1 mph25.9 kmh 30.13 in1020.3 mb - 0.00 in0.0 mm 0.02 in0.5 mm
12:10 PM 76.4°F24.7°C 66.7°F19.3°C 72% 11.5 mph E18.5 kmh E 16.1 mph25.9 kmh 30.14 in1020.7 mb - 0.00 in0.0 mm 0.02 in0.5 mm
12:00 PM 75.5°F24.2°C 66.6°F19.2°C 74% 5.8 mph E9.3 kmh E 13.8 mph22.2 kmh 30.14 in1020.7 mb - 0.00 in0.0 mm 0.02 in0.5 mm
11:50 AM 76.1°F24.5°C 66.8°F19.3°C 73% 6.9 mph E11.1 kmh E 11.5 mph18.5 kmh 30.15 in1021.0 mb - 0.00 in0.0 mm 0.02 in0.5 mm
11:40 AM 75.7°F24.3°C 66.8°F19.3°C 74% 8.1 mph E13.0 kmh E 18.4 mph29.6 kmh 30.15 in1021.0 mb - 0.00 in0.0 mm 0.02 in0.5 mm
11:30 AM 75.8°F24.3°C 66.2°F19.0°C 72% 10.4 mph E16.7 kmh E 19.6 mph31.5 kmh 30.16 in1021.3 mb - 0.00 in0.0 mm 0.02 in0.5 mm
11:20 AM 76.3°F24.6°C 66.6°F19.2°C 72% 9.2 mph ESE14.8 kmh ESE 11.5 mph18.5 kmh 30.16 in1021.3 mb - 0.00 in0.0 mm 0.02 in0.5 mm
11:10 AM 75.7°F24.3°C 66.8°F19.3°C 74% 8.1 mph E13.0 kmh E 15.0 mph24.1 kmh 30.16 in1021.3 mb - 0.00 in0.0 mm 0.02 in0.5 mm
11:00 AM 75.7°F24.3°C 66.4°F19.1°C 73% 8.1 mph E13.0 kmh E 17.3 mph27.8 kmh 30.16 in1021.3 mb - 0.00 in0.0 mm 0.02 in0.5 mm
10:50 AM 75.5°F24.2°C 66.7°F19.3°C 74% 8.1 mph ESE13.0 kmh ESE 13.8 mph22.2 kmh 30.17 in1021.7 mb - 0.00 in0.0 mm 0.02 in0.5 mm
10:40 AM 75.0°F23.9°C 66.1°F18.9°C 74% 5.8 mph ESE9.3 kmh ESE 12.7 mph20.4 kmh 30.17 in1021.7 mb - 0.00 in0.0 mm 0.02 in0.5 mm
10:30 AM 75.2°F24.0°C 66.3°F19.1°C 74% 10.4 mph E16.7 kmh E 17.3 mph27.8 kmh 30.18 in1022.0 mb - 0.00 in0.0 mm 0.02 in0.5 mm
10:20 AM 75.3°F24.1°C 66.4°F19.1°C 74% 6.9 mph E11.1 kmh E 15.0 mph24.1 kmh 30.18 in1022.0 mb - 0.00 in0.0 mm 0.02 in0.5 mm
10:10 AM 75.0°F23.9°C 66.1°F18.9°C 74% 8.1 mph E13.0 kmh E 11.5 mph18.5 kmh 30.19 in1022.4 mb - 0.00 in0.0 mm 0.02 in0.5 mm
10:00 AM 75.1°F23.9°C 65.9°F18.8°C 73% 6.9 mph ESE11.1 kmh ESE 11.5 mph18.5 kmh 30.19 in1022.4 mb - 0.00 in0.0 mm 0.02 in0.5 mm
09:50 AM 75.0°F23.9°C 66.1°F18.9°C 74% 6.9 mph E11.1 kmh E 12.7 mph20.4 kmh 30.19 in1022.4 mb - 0.00 in0.0 mm 0.02 in0.5 mm
09:40 AM 75.0°F23.9°C 66.2°F19.0°C 74% 6.9 mph E11.1 kmh E 11.5 mph18.5 kmh 30.19 in1022.4 mb - 0.00 in0.0 mm 0.02 in0.5 mm
09:30 AM 75.1°F23.9°C 65.4°F18.6°C 72% 9.2 mph ENE14.8 kmh ENE 15.0 mph24.1 kmh 30.19 in1022.4 mb - 0.00 in0.0 mm 0.02 in0.5 mm
09:20 AM 74.8°F23.8°C 64.8°F18.2°C 71% 8.1 mph E13.0 kmh E 10.4 mph16.7 kmh 30.19 in1022.4 mb - 0.00 in0.0 mm 0.02 in0.5 mm
09:10 AM 74.6°F23.7°C 64.2°F17.9°C 70% 8.1 mph E13.0 kmh E 15.0 mph24.1 kmh 30.19 in1022.4 mb - 0.00 in0.0 mm 0.02 in0.5 mm
09:00 AM 74.4°F23.6°C 65.2°F18.4°C 73% 8.1 mph E13.0 kmh E 12.7 mph20.4 kmh 30.19 in1022.4 mb - 0.00 in0.0 mm 0.02 in0.5 mm
08:50 AM 74.1°F23.4°C 64.9°F18.3°C 73% 8.1 mph E13.0 kmh E 11.5 mph18.5 kmh 30.19 in1022.4 mb - 0.00 in0.0 mm 0.02 in0.5 mm
08:40 AM 73.8°F23.2°C 65.0°F18.3°C 74% 5.8 mph E9.3 kmh E 11.5 mph18.5 kmh 30.18 in1022.0 mb - 0.00 in0.0 mm 0.02 in0.5 mm
08:30 AM 73.5°F23.1°C 65.1°F18.4°C 75% 4.6 mph E7.4 kmh E 11.5 mph18.5 kmh 30.18 in1022.0 mb - 0.00 in0.0 mm 0.02 in0.5 mm
08:20 AM 73.2°F22.9°C 65.2°F18.4°C 76% 5.8 mph ESE9.3 kmh ESE 13.8 mph22.2 kmh 30.18 in1022.0 mb - 0.00 in0.0 mm 0.02 in0.5 mm
08:10 AM 72.8°F22.7°C 64.8°F18.2°C 76% 3.5 mph E5.6 kmh E 10.4 mph16.7 kmh 30.18 in1022.0 mb - 0.00 in0.0 mm 0.02 in0.5 mm
08:00 AM 72.4°F22.4°C 64.4°F18.0°C 76% 1.2 mph ESE1.9 kmh ESE 6.9 mph11.1 kmh 30.17 in1021.7 mb - 0.00 in0.0 mm 0.02 in0.5 mm
07:50 AM 71.9°F22.2°C 64.3°F17.9°C 77% 1.2 mph E1.9 kmh E 6.9 mph11.1 kmh 30.17 in1021.7 mb - 0.00 in0.0 mm 0.02 in0.5 mm
07:40 AM 71.5°F21.9°C 63.9°F17.7°C 77% 5.8 mph E9.3 kmh E 9.2 mph14.8 kmh 30.17 in1021.7 mb - 0.00 in0.0 mm 0.02 in0.5 mm
07:30 AM 71.3°F21.8°C 64.1°F17.8°C 78% 4.6 mph ESE7.4 kmh ESE 9.2 mph14.8 kmh 30.17 in1021.7 mb - 0.00 in0.0 mm 0.02 in0.5 mm
07:20 AM 71.0°F21.7°C 63.8°F17.7°C 78% 3.5 mph ESE5.6 kmh ESE 6.9 mph11.1 kmh 30.17 in1021.7 mb - 0.00 in0.0 mm 0.02 in0.5 mm
07:10 AM 70.4°F21.3°C 63.9°F17.7°C 80% 3.5 mph E5.6 kmh E 8.1 mph13.0 kmh 30.16 in1021.3 mb - 0.00 in0.0 mm 0.02 in0.5 mm
07:00 AM 70.0°F21.1°C 63.9°F17.7°C 81% 3.5 mph E5.6 kmh E 6.9 mph11.1 kmh 30.16 in1021.3 mb - 0.00 in0.0 mm 0.02 in0.5 mm
06:50 AM 70.1°F21.2°C 64.0°F17.8°C 81% 1.2 mph E1.9 kmh E 3.5 mph5.6 kmh 30.17 in1021.7 mb - 0.00 in0.0 mm 0.02 in0.5 mm
06:40 AM 70.2°F21.2°C 64.1°F17.8°C 81% 3.5 mph E5.6 kmh E 6.9 mph11.1 kmh 30.16 in1021.3 mb - 0.00 in0.0 mm 0.02 in0.5 mm
06:30 AM 70.3°F21.3°C 63.8°F17.7°C 80% 2.3 mph E3.7 kmh E 6.9 mph11.1 kmh 30.16 in1021.3 mb - 0.00 in0.0 mm 0.02 in0.5 mm
06:20 AM 70.2°F21.2°C 64.1°F17.8°C 81% 3.5 mph E5.6 kmh E 8.1 mph13.0 kmh 30.16 in1021.3 mb - 0.00 in0.0 mm 0.02 in0.5 mm
06:10 AM 70.3°F21.3°C 63.8°F17.7°C 80% 4.6 mph ESE7.4 kmh ESE 5.8 mph9.3 kmh 30.16 in1021.3 mb - 0.00 in0.0 mm 0.02 in0.5 mm
06:00 AM 70.2°F21.2°C 64.4°F18.0°C 82% 4.6 mph E7.4 kmh E 8.1 mph13.0 kmh 30.16 in1021.3 mb - 0.00 in0.0 mm 0.02 in0.5 mm
05:50 AM 70.2°F21.2°C 64.8°F18.2°C 83% 2.3 mph ESE3.7 kmh ESE 6.9 mph11.1 kmh 30.16 in1021.3 mb - 0.00 in0.0 mm 0.02 in0.5 mm
05:40 AM 70.3°F21.3°C 65.2°F18.4°C 84% 4.6 mph ESE7.4 kmh ESE 10.4 mph16.7 kmh 30.16 in1021.3 mb - 0.00 in0.0 mm 0.02 in0.5 mm
05:30 AM 70.0°F21.1°C 65.0°F18.3°C 84% 2.3 mph ESE3.7 kmh ESE 3.5 mph5.6 kmh 30.16 in1021.3 mb - 0.00 in0.0 mm 0.02 in0.5 mm
05:20 AM 70.1°F21.2°C 65.4°F18.6°C 85% 4.6 mph E7.4 kmh E 9.2 mph14.8 kmh 30.16 in1021.3 mb - 0.00 in0.0 mm 0.02 in0.5 mm
05:10 AM 70.1°F21.2°C 65.7°F18.7°C 86% 3.5 mph E5.6 kmh E 9.2 mph14.8 kmh 30.16 in1021.3 mb - 0.00 in0.0 mm 0.02 in0.5 mm
05:00 AM 70.0°F21.1°C 65.3°F18.5°C 85% 4.6 mph ESE7.4 kmh ESE 8.1 mph13.0 kmh 30.16 in1021.3 mb - 0.00 in0.0 mm 0.02 in0.5 mm
04:50 AM 69.7°F20.9°C 64.7°F18.2°C 84% 3.5 mph E5.6 kmh E 6.9 mph11.1 kmh 30.16 in1021.3 mb - 0.00 in0.0 mm 0.02 in0.5 mm
04:40 AM 69.7°F20.9°C 64.6°F18.1°C 84% 1.2 mph E1.9 kmh E 8.1 mph13.0 kmh 30.16 in1021.3 mb - 0.00 in0.0 mm 0.02 in0.5 mm
04:30 AM 69.6°F20.9°C 64.9°F18.3°C 85% 3.5 mph E5.6 kmh E 8.1 mph13.0 kmh 30.16 in1021.3 mb - 0.00 in0.0 mm 0.02 in0.5 mm
04:20 AM 69.5°F20.8°C 65.1°F18.4°C 86% 3.5 mph E5.6 kmh E 8.1 mph13.0 kmh 30.16 in1021.3 mb - 0.00 in0.0 mm 0.02 in0.5 mm
04:10 AM 69.6°F20.9°C 65.6°F18.7°C 87% 4.6 mph ESE7.4 kmh ESE 6.9 mph11.1 kmh 30.16 in1021.3 mb - 0.00 in0.0 mm 0.02 in0.5 mm
04:00 AM 69.8°F21.0°C 65.8°F18.8°C 87% 2.3 mph ESE3.7 kmh ESE 3.5 mph5.6 kmh 30.16 in1021.3 mb - 0.00 in0.0 mm 0.02 in0.5 mm
03:50 AM 70.0°F21.1°C 66.0°F18.9°C 87% 2.3 mph ESE3.7 kmh ESE 9.2 mph14.8 kmh 30.17 in1021.7 mb - 0.00 in0.0 mm 0.02 in0.5 mm
03:40 AM 70.0°F21.1°C 65.6°F18.7°C 86% 2.3 mph SE3.7 kmh SE 3.5 mph5.6 kmh 30.17 in1021.7 mb - 0.00 in0.0 mm 0.02 in0.5 mm
03:30 AM 69.7°F20.9°C 65.0°F18.3°C 85% 2.3 mph E3.7 kmh E 6.9 mph11.1 kmh 30.17 in1021.7 mb - 0.00 in0.0 mm 0.02 in0.5 mm
03:20 AM 69.5°F20.8°C 65.1°F18.4°C 86% 3.5 mph ESE5.6 kmh ESE 6.9 mph11.1 kmh 30.18 in1022.0 mb - 0.00 in0.0 mm 0.02 in0.5 mm
03:10 AM 69.5°F20.8°C 65.1°F18.4°C 86% 2.3 mph ESE3.7 kmh ESE 10.4 mph16.7 kmh 30.18 in1022.0 mb - 0.00 in0.0 mm 0.02 in0.5 mm
03:00 AM 69.5°F20.8°C 65.5°F18.6°C 87% 3.5 mph E5.6 kmh E 5.8 mph9.3 kmh 30.18 in1022.0 mb - 0.00 in0.0 mm 0.02 in0.5 mm
02:50 AM 69.8°F21.0°C 65.4°F18.6°C 86% 3.5 mph ESE5.6 kmh ESE 6.9 mph11.1 kmh 30.18 in1022.0 mb - 0.00 in0.0 mm 0.02 in0.5 mm
02:40 AM 69.9°F21.1°C 65.2°F18.4°C 85% 8.1 mph E13.0 kmh E 12.7 mph20.4 kmh 30.18 in1022.0 mb - 0.00 in0.0 mm 0.02 in0.5 mm
02:30 AM 69.5°F20.8°C 65.5°F18.6°C 87% 3.5 mph E5.6 kmh E 11.5 mph18.5 kmh 30.18 in1022.0 mb - 0.00 in0.0 mm 0.02 in0.5 mm
02:20 AM 69.0°F20.6°C 65.0°F18.3°C 87% 3.5 mph SE5.6 kmh SE 8.1 mph13.0 kmh 30.18 in1022.0 mb - 0.00 in0.0 mm 0.02 in0.5 mm
02:10 AM 69.0°F20.6°C 64.3°F17.9°C 85% 4.6 mph E7.4 kmh E 9.2 mph14.8 kmh 30.19 in1022.4 mb - 0.00 in0.0 mm 0.02 in0.5 mm
02:00 AM 68.9°F20.5°C 64.2°F17.9°C 85% Calm Calm 5.8 mph9.3 kmh 30.18 in1022.0 mb - 0.00 in0.0 mm 0.02 in0.5 mm
01:50 AM 68.9°F20.5°C 64.5°F18.1°C 86% 2.3 mph E3.7 kmh E 3.5 mph5.6 kmh 30.19 in1022.4 mb - 0.00 in0.0 mm 0.02 in0.5 mm
01:40 AM 69.1°F20.6°C 65.1°F18.4°C 87% Calm Calm -- 30.19 in1022.4 mb - 0.02 in0.5 mm 0.02 in0.5 mm
01:30 AM 69.5°F20.8°C 65.5°F18.6°C 87% 4.6 mph ENE7.4 kmh ENE 5.8 mph9.3 kmh 30.20 in1022.7 mb - 0.00 in0.0 mm 0.00 in0.0 mm
01:20 AM 69.4°F20.8°C 65.3°F18.5°C 87% Calm Calm -- 30.20 in1022.7 mb - 0.00 in0.0 mm 0.00 in0.0 mm
01:10 AM 69.5°F20.8°C 65.5°F18.6°C 87% 3.5 mph NE5.6 kmh NE 6.9 mph11.1 kmh 30.20 in1022.7 mb - 0.00 in0.0 mm 0.00 in0.0 mm
01:00 AM 69.3°F20.7°C 65.3°F18.5°C 87% 3.5 mph E5.6 kmh E 9.2 mph14.8 kmh 30.20 in1022.7 mb - 0.00 in0.0 mm 0.00 in0.0 mm
12:50 AM 69.1°F20.6°C 64.7°F18.2°C 86% 5.8 mph E9.3 kmh E 10.4 mph16.7 kmh 30.20 in1022.7 mb - 0.00 in0.0 mm 0.00 in0.0 mm
12:40 AM 68.4°F20.2°C 63.0°F17.2°C 83% 4.6 mph ESE7.4 kmh ESE 8.1 mph13.0 kmh 30.20 in1022.7 mb - 0.00 in0.0 mm 0.00 in0.0 mm
12:30 AM 68.0°F20.0°C 62.3°F16.8°C 82% 2.3 mph SE3.7 kmh SE 3.5 mph5.6 kmh 30.20 in1022.7 mb - 0.00 in0.0 mm 0.00 in0.0 mm
12:20 AM 67.8°F19.9°C 62.4°F16.9°C 83% Calm Calm -- 30.20 in1022.7 mb - 0.00 in0.0 mm 0.00 in0.0 mm
12:10 AM 67.3°F19.6°C 62.3°F16.8°C 84% 1.2 mph SE1.9 kmh SE 4.6 mph7.4 kmh 30.21 in1023.0 mb - 0.00 in0.0 mm 0.00 in0.0 mm
12:00 AM 66.8°F19.3°C 61.8°F16.6°C 84% 2.3 mph E3.7 kmh E 9.2 mph14.8 kmh 30.21 in1023.0 mb - 0.00 in0.0 mm 0.00 in0.0 mm